Wetterdaten: Montag, 01.03.2010
Datum Zeit Temp. A. Feuchte A. Luftdruck Regen Wind Richtung Richtung Sonnenschein UV Solar Windben
01.03.2010 00:00 4,9 C 86 % 992,0 hPa 0,0 mm 17,7 km/h (3 Bft) W-SW 247 0 min 0 UV-I 0 W/m 33,8 km/h (5 Bft)
01.03.2010 00:10 4,8 C 85 % 992,3 hPa 0,0 mm 19,3 km/h (3 Bft) W-SW 247 0 min 0 UV-I 0 W/m 43,5 km/h (6 Bft)
01.03.2010 00:20 4,8 C 85 % 992,5 hPa 0,0 mm 17,7 km/h (3 Bft) W-SW 247 0 min 0 UV-I 0 W/m 40,2 km/h (6 Bft)
01.03.2010 00:30 4,7 C 85 % 992,8 hPa 0,0 mm 17,7 km/h (3 Bft) W-SW 247 0 min 0 UV-I 0 W/m 38,6 km/h (5 Bft)
01.03.2010 00:40 4,7 C 86 % 993,1 hPa 0,0 mm 20,9 km/h (4 Bft) W-SW 247 0 min 0 UV-I 0 W/m 48,3 km/h (6 Bft)
01.03.2010 00:50 4,6 C 86 % 993,3 hPa 0,0 mm 17,7 km/h (3 Bft) W-SW 247 0 min 0 UV-I 0 W/m 38,6 km/h (5 Bft)
01.03.2010 01:00 4,5 C 86 % 993,5 hPa 0,0 mm 19,3 km/h (3 Bft) W-SW 247 0 min 0 UV-I 0 W/m 38,6 km/h (5 Bft)
01.03.2010 01:10 4,4 C 86 % 994,0 hPa 0,3 mm 20,9 km/h (4 Bft) W-SW 247 0 min 0 UV-I 0 W/m 45,1 km/h (6 Bft)
01.03.2010 01:20 4,3 C 86 % 994,0 hPa 0,0 mm 20,9 km/h (4 Bft) W-SW 247 0 min 0 UV-I 0 W/m 40,2 km/h (6 Bft)
01.03.2010 01:30 4,2 C 87 % 994,2 hPa 0,0 mm 17,7 km/h (3 Bft) W-SW 247 0 min 0 UV-I 0 W/m 38,6 km/h (5 Bft)
01.03.2010 01:40 4,1 C 87 % 994,4 hPa 0,0 mm 19,3 km/h (3 Bft) W-SW 247 0 min 0 UV-I 0 W/m 43,5 km/h (6 Bft)
01.03.2010 01:50 4,1 C 87 % 994,5 hPa 0,3 mm 17,7 km/h (3 Bft) W-SW 247 0 min 0 UV-I 0 W/m 40,2 km/h (6 Bft)
01.03.2010 02:00 3,9 C 87 % 994,7 hPa 0,0 mm 17,7 km/h (3 Bft) W 270 0 min 0 UV-I 0 W/m 38,6 km/h (5 Bft)
01.03.2010 02:10 3,9 C 87 % 995,0 hPa 0,0 mm 17,7 km/h (3 Bft) W 270 0 min 0 UV-I 0 W/m 40,2 km/h (6 Bft)
01.03.2010 02:20 3,8 C 87 % 995,3 hPa 0,3 mm 17,7 km/h (3 Bft) W-SW 247 0 min 0 UV-I 0 W/m 38,6 km/h (5 Bft)
01.03.2010 02:30 3,8 C 88 % 995,5 hPa 0,0 mm 19,3 km/h (3 Bft) W-SW 247 0 min 0 UV-I 0 W/m 38,6 km/h (5 Bft)
01.03.2010 02:40 3,8 C 88 % 995,6 hPa 0,0 mm 17,7 km/h (3 Bft) W-SW 247 0 min 0 UV-I 0 W/m 38,6 km/h (5 Bft)
01.03.2010 02:50 3,8 C 88 % 995,8 hPa 0,0 mm 14,5 km/h (3 Bft) W-SW 247 0 min 0 UV-I 0 W/m 38,6 km/h (5 Bft)
01.03.2010 03:00 3,8 C 88 % 996,1 hPa 0,0 mm 17,7 km/h (3 Bft) W 270 0 min 0 UV-I 0 W/m 41,8 km/h (6 Bft)
01.03.2010 03:10 3,9 C 88 % 996,1 hPa 0,3 mm 19,3 km/h (3 Bft) W-SW 247 0 min 0 UV-I 0 W/m 41,8 km/h (6 Bft)
01.03.2010 03:20 3,9 C 88 % 996,2 hPa 0,0 mm 16,1 km/h (3 Bft) W-SW 247 0 min 0 UV-I 0 W/m 38,6 km/h (5 Bft)
01.03.2010 03:30 3,9 C 88 % 996,3 hPa 0,0 mm 17,7 km/h (3 Bft) W-SW 247 0 min 0 UV-I 0 W/m 38,6 km/h (5 Bft)
01.03.2010 03:40 3,9 C 88 % 996,5 hPa 0,0 mm 17,7 km/h (3 Bft) W-SW 247 0 min 0 UV-I 0 W/m 46,7 km/h (6 Bft)
01.03.2010 03:50 3,9 C 88 % 996,6 hPa 0,0 mm 14,5 km/h (3 Bft) W-SW 247 0 min 0 UV-I 0 W/m 32,2 km/h (5 Bft)
01.03.2010 04:00 4,0 C 87 % 996,8 hPa 0,0 mm 14,5 km/h (3 Bft) W-SW 247 0 min 0 UV-I 0 W/m 32,2 km/h (5 Bft)
01.03.2010 04:10 4,1 C 87 % 996,9 hPa 0,0 mm 14,5 km/h (3 Bft) W-SW 247 0 min 0 UV-I 0 W/m 33,8 km/h (5 Bft)
01.03.2010 04:20 4,1 C 87 % 997,0 hPa 0,0 mm 14,5 km/h (3 Bft) W-SW 247 0 min 0 UV-I 0 W/m 32,2 km/h (5 Bft)
01.03.2010 04:30 4,1 C 86 % 997,2 hPa 0,0 mm 12,9 km/h (3 Bft) W-SW 247 0 min 0 UV-I 0 W/m 33,8 km/h (5 Bft)
01.03.2010 04:40 4,1 C 85 % 997,5 hPa 0,0 mm 16,1 km/h (3 Bft) W-SW 247 0 min 0 UV-I 0 W/m 38,6 km/h (5 Bft)
01.03.2010 04:50 4,1 C 85 % 997,7 hPa 0,0 mm 14,5 km/h (3 Bft) W-SW 247 0 min 0 UV-I 0 W/m 37,0 km/h (5 Bft)
01.03.2010 05:00 4,1 C 84 % 997,9 hPa 0,0 mm 14,5 km/h (3 Bft) W-SW 247 0 min 0 UV-I 0 W/m 40,2 km/h (6 Bft)
01.03.2010 05:10 4,1 C 84 % 998,1 hPa 0,0 mm 14,5 km/h (3 Bft) W-SW 247 0 min 0 UV-I 0 W/m 33,8 km/h (5 Bft)
01.03.2010 05:20 4,1 C 84 % 998,3 hPa 0,0 mm 17,7 km/h (3 Bft) W-SW 247 0 min 0 UV-I 0 W/m 41,8 km/h (6 Bft)
01.03.2010 05:30 4,1 C 84 % 998,5 hPa 0,3 mm 17,7 km/h (3 Bft) W-SW 247 0 min 0 UV-I 0 W/m 41,8 km/h (6 Bft)
01.03.2010 05:40 4,1 C 84 % 998,6 hPa 0,0 mm 14,5 km/h (3 Bft) W-SW 247 0 min 0 UV-I 0 W/m 30,6 km/h (5 Bft)
01.03.2010 05:50 4,0 C 85 % 998,9 hPa 0,0 mm 16,1 km/h (3 Bft) W-SW 247 0 min 0 UV-I 0 W/m 35,4 km/h (5 Bft)
01.03.2010 06:00 3,9 C 85 % 999,0 hPa 0,0 mm 16,1 km/h (3 Bft) W-SW 247 0 min 0 UV-I 0 W/m 32,2 km/h (5 Bft)
01.03.2010 06:10 3,8 C 86 % 999,3 hPa 0,0 mm 16,1 km/h (3 Bft) W-SW 247 0 min 0 UV-I 0 W/m 35,4 km/h (5 Bft)
01.03.2010 06:20 3,8 C 86 % 999,4 hPa 0,3 mm 12,9 km/h (3 Bft) W 270 0 min 0 UV-I 0 W/m 29,0 km/h (5 Bft)
01.03.2010 06:30 3,7 C 87 % 999,6 hPa 0,0 mm 12,9 km/h (3 Bft) W-SW 247 0 min 0 UV-I 0 W/m 35,4 km/h (5 Bft)
01.03.2010 06:40 3,6 C 87 % 999,8 hPa 0,3 mm 12,9 km/h (3 Bft) W-SW 247 0 min 0 UV-I 0 W/m 29,0 km/h (5 Bft)
01.03.2010 06:50 3,5 C 87 % 1000,1 hPa 0,0 mm 12,9 km/h (3 Bft) W-SW 247 0 min 0 UV-I 0 W/m 30,6 km/h (5 Bft)
01.03.2010 07:00 3,4 C 88 % 1000,3 hPa 0,0 mm 14,5 km/h (3 Bft) W-SW 247 0 min 0 UV-I 0 W/m 32,2 km/h (5 Bft)
01.03.2010 07:10 3,4 C 88 % 1000,5 hPa 0,0 mm 14,5 km/h (3 Bft) W-SW 247 0 min 0 UV-I 0 W/m 32,2 km/h (5 Bft)
01.03.2010 07:20 3,4 C 88 % 1000,8 hPa 0,0 mm 14,5 km/h (3 Bft) W-SW 247 0 min 0 UV-I 0 W/m 30,6 km/h (5 Bft)
01.03.2010 07:30 3,3 C 88 % 1001,0 hPa 0,0 mm 12,9 km/h (3 Bft) SW 225 0 min 0 UV-I 0 W/m 30,6 km/h (5 Bft)
01.03.2010 07:40 3,3 C 89 % 1001,3 hPa 0,0 mm 11,3 km/h (2 Bft) W-SW 247 0 min 0 UV-I 0 W/m 27,4 km/h (4 Bft)
01.03.2010 07:50 3,3 C 89 % 1001,4 hPa 0,0 mm 9,7 km/h (2 Bft) W-SW 247 0 min 0 UV-I 0 W/m 25,7 km/h (4 Bft)
01.03.2010 08:00 3,3 C 89 % 1001,8 hPa 0,0 mm 8,4 km/h (2 Bft) W-SW 250 0 min 0 UV-I 0 W/m 25,7 km/h (4 Bft)
01.03.2010 08:10 3,3 C 89 % 1002,0 hPa 0,0 mm 12,9 km/h (3 Bft) SW 225 0 min 0 UV-I 0 W/m 30,6 km/h (5 Bft)
01.03.2010 08:20 3,3 C 89 % 1002,2 hPa 0,0 mm 14,5 km/h (3 Bft) W-SW 247 0 min 0 UV-I 5 W/m 30,6 km/h (5 Bft)
01.03.2010 08:30 3,3 C 89 % 1002,5 hPa 0,0 mm 9,7 km/h (2 Bft) W 270 0 min 0 UV-I 5 W/m 27,4 km/h (4 Bft)
01.03.2010 08:40 3,4 C 89 % 1002,8 hPa 0,0 mm 12,9 km/h (3 Bft) W 270 0 min 0 UV-I 11 W/m 30,6 km/h (5 Bft)
01.03.2010 08:50 3,4 C 89 % 1003,0 hPa 0,0 mm 11,3 km/h (2 Bft) W 270 0 min 0 UV-I 18 W/m 29,0 km/h (5 Bft)
01.03.2010 09:00 3,5 C 89 % 1003,2 hPa 0,0 mm 9,7 km/h (2 Bft) W-SW 247 0 min 0 UV-I 19 W/m 24,1 km/h (4 Bft)
01.03.2010 09:10 3,5 C 89 % 1003,4 hPa 0,0 mm 9,7 km/h (2 Bft) W 270 0 min 0 UV-I 25 W/m 24,1 km/h (4 Bft)
01.03.2010 09:20 3,6 C 89 % 1003,6 hPa 0,0 mm 8,0 km/h (2 Bft) W-SW 247 0 min 0 UV-I 19 W/m 22,5 km/h (4 Bft)
01.03.2010 09:30 3,6 C 89 % 1003,8 hPa 0,0 mm 9,7 km/h (2 Bft) W 270 0 min 0 UV-I 37 W/m 25,7 km/h (4 Bft)
01.03.2010 09:40 3,6 C 89 % 1004,0 hPa 0,0 mm 9,7 km/h (2 Bft) W 270 0 min 0 UV-I 72 W/m 25,7 km/h (4 Bft)
01.03.2010 09:50 3,6 C 89 % 1004,0 hPa 0,0 mm 8,0 km/h (2 Bft) W 270 0 min 1 UV-I 98 W/m 19,3 km/h (3 Bft)
01.03.2010 10:00 3,7 C 89 % 1004,1 hPa 0,0 mm 8,0 km/h (2 Bft) W 270 0 min 1 UV-I 116 W/m 22,5 km/h (4 Bft)
01.03.2010 10:10 3,7 C 89 % 1004,3 hPa 0,0 mm 6,4 km/h (2 Bft) W 270 0 min 0 UV-I 53 W/m 19,3 km/h (3 Bft)
01.03.2010 10:20 3,8 C 89 % 1004,5 hPa 0,0 mm 8,0 km/h (2 Bft) W-SW 247 0 min 1 UV-I 93 W/m 20,9 km/h (4 Bft)
01.03.2010 10:30 3,8 C 89 % 1004,6 hPa 0,0 mm 9,7 km/h (2 Bft) W 270 0 min 1 UV-I 144 W/m 25,7 km/h (4 Bft)
01.03.2010 10:40 3,9 C 88 % 1004,8 hPa 0,0 mm 9,7 km/h (2 Bft) W 270 0 min 1 UV-I 100 W/m 25,7 km/h (4 Bft)
01.03.2010 10:50 4,0 C 88 % 1004,9 hPa 0,3 mm 11,3 km/h (2 Bft) W-SW 247 0 min 1 UV-I 97 W/m 27,4 km/h (4 Bft)
01.03.2010 11:00 4,0 C 88 % 1005,1 hPa 0,0 mm 11,3 km/h (2 Bft) W-SW 247 10 min 2 UV-I 540 W/m 29,0 km/h (5 Bft)
01.03.2010 11:10 4,0 C 89 % 1005,2 hPa 0,0 mm 11,3 km/h (2 Bft) W-SW 247 10 min 1 UV-I 308 W/m 24,1 km/h (4 Bft)
01.03.2010 11:20 4,1 C 88 % 1005,4 hPa 0,0 mm 11,3 km/h (2 Bft) W-SW 247 0 min 1 UV-I 148 W/m 29,0 km/h (5 Bft)
01.03.2010 11:30 4,2 C 88 % 1005,7 hPa 0,0 mm 11,3 km/h (2 Bft) W-SW 247 0 min 2 UV-I 232 W/m 24,1 km/h (4 Bft)
01.03.2010 11:40 4,3 C 87 % 1005,6 hPa 0,3 mm 12,9 km/h (3 Bft) W-SW 247 0 min 0 UV-I 60 W/m 29,0 km/h (5 Bft)
01.03.2010 11:50 4,3 C 87 % 1006,0 hPa 0,0 mm 9,7 km/h (2 Bft) W 270 0 min 1 UV-I 156 W/m 30,6 km/h (5 Bft)
01.03.2010 12:00 4,2 C 86 % 1006,0 hPa 0,3 mm 11,3 km/h (2 Bft) W 270 0 min 1 UV-I 199 W/m 29,0 km/h (5 Bft)
01.03.2010 12:10 3,9 C 86 % 1006,3 hPa 0,0 mm 11,3 km/h (2 Bft) W 270 0 min 2 UV-I 262 W/m 27,4 km/h (4 Bft)
01.03.2010 12:20 3,9 C 86 % 1006,6 hPa 0,0 mm 11,3 km/h (2 Bft) W 270 0 min 1 UV-I 174 W/m 25,7 km/h (4 Bft)
01.03.2010 12:30 4,1 C 86 % 1006,6 hPa 0,0 mm 8,0 km/h (2 Bft) W-SW 247 0 min 1 UV-I 239 W/m 20,9 km/h (4 Bft)
01.03.2010 12:40 4,2 C 85 % 1006,6 hPa 0,0 mm 9,7 km/h (2 Bft) W 270 0 min 0 UV-I 60 W/m 29,0 km/h (5 Bft)
01.03.2010 12:50 4,0 C 86 % 1006,9 hPa 0,3 mm 8,0 km/h (2 Bft) W-SW 247 0 min 1 UV-I 176 W/m 24,1 km/h (4 Bft)
01.03.2010 13:00 3,8 C 87 % 1006,9 hPa 0,0 mm 6,4 km/h (2 Bft) W 270 0 min 1 UV-I 181 W/m 25,7 km/h (4 Bft)
01.03.2010 13:10 4,1 C 83 % 1006,9 hPa 0,0 mm 9,7 km/h (2 Bft) W 270 0 min 1 UV-I 200 W/m 27,4 km/h (4 Bft)
01.03.2010 13:20 4,6 C 79 % 1007,1 hPa 0,0 mm 8,0 km/h (2 Bft) W 270 0 min 2 UV-I 185 W/m 25,7 km/h (4 Bft)
01.03.2010 13:30 5,1 C 77 % 1007,1 hPa 0,0 mm 9,7 km/h (2 Bft) W 270 10 min 2 UV-I 578 W/m 24,1 km/h (4 Bft)
01.03.2010 13:40 5,8 C 75 % 1007,1 hPa 0,0 mm 11,3 km/h (2 Bft) W 270 10 min 2 UV-I 591 W/m 32,2 km/h (5 Bft)
01.03.2010 13:50 6,1 C 72 % 1007,2 hPa 0,0 mm 12,9 km/h (3 Bft) W 270 10 min 2 UV-I 589 W/m 32,2 km/h (5 Bft)
01.03.2010 14:00 6,1 C 73 % 1007,3 hPa 0,0 mm 9,7 km/h (2 Bft) W 270 10 min 2 UV-I 559 W/m 27,4 km/h (4 Bft)
01.03.2010 14:10 6,1 C 71 % 1007,4 hPa 0,0 mm 8,0 km/h (2 Bft) W 270 10 min 2 UV-I 559 W/m 22,5 km/h (4 Bft)
01.03.2010 14:20 6,2 C 68 % 1007,6 hPa 0,0 mm 11,3 km/h (2 Bft) W 270 10 min 2 UV-I 554 W/m 27,4 km/h (4 Bft)
01.03.2010 14:30 5,7 C 69 % 1007,7 hPa 0,0 mm 8,0 km/h (2 Bft) W 270 0 min 1 UV-I 88 W/m 25,7 km/h (4 Bft)
01.03.2010 14:40 5,7 C 69 % 1007,8 hPa 0,0 mm 9,7 km/h (2 Bft) W 270 10 min 2 UV-I 508 W/m 25,7 km/h (4 Bft)
01.03.2010 14:50 5,7 C 67 % 1007,9 hPa 0,0 mm 9,7 km/h (2 Bft) W 270 0 min 1 UV-I 88 W/m 27,4 km/h (4 Bft)
01.03.2010 15:00 5,4 C 67 % 1008,1 hPa 0,0 mm 8,0 km/h (2 Bft) W 270 0 min 1 UV-I 72 W/m 19,3 km/h (3 Bft)
01.03.2010 15:10 5,4 C 67 % 1008,2 hPa 0,0 mm 4,8 km/h (1 Bft) W 270 10 min 1 UV-I 373 W/m 16,1 km/h (3 Bft)
01.03.2010 15:20 5,6 C 63 % 1008,3 hPa 0,0 mm 6,4 km/h (2 Bft) W 270 0 min 1 UV-I 58 W/m 20,9 km/h (4 Bft)
01.03.2010 15:30 5,5 C 61 % 1008,4 hPa 0,0 mm 8,0 km/h (2 Bft) W 270 0 min 1 UV-I 104 W/m 19,3 km/h (3 Bft)
01.03.2010 15:40 5,6 C 61 % 1008,4 hPa 0,0 mm 9,7 km/h (2 Bft) W 270 0 min 1 UV-I 120 W/m 24,1 km/h (4 Bft)
01.03.2010 15:50 5,8 C 61 % 1008,6 hPa 0,0 mm 9,7 km/h (2 Bft) W 270 0 min 1 UV-I 135 W/m 24,1 km/h (4 Bft)
01.03.2010 16:00 5,8 C 62 % 1008,7 hPa 0,0 mm 7,5 km/h (2 Bft) W 271 10 min 1 UV-I 303 W/m 16,1 km/h (3 Bft)
01.03.2010 16:10 6,1 C 62 % 1008,8 hPa 0,0 mm 8,0 km/h (2 Bft) W 270 10 min 1 UV-I 366 W/m 27,4 km/h (4 Bft)
01.03.2010 16:20 5,9 C 62 % 1009,0 hPa 0,0 mm 6,4 km/h (2 Bft) W 270 0 min 0 UV-I 91 W/m 27,4 km/h (4 Bft)
01.03.2010 16:30 5,8 C 64 % 1009,1 hPa 0,0 mm 8,0 km/h (2 Bft) W 270 0 min 0 UV-I 77 W/m 19,3 km/h (3 Bft)
01.03.2010 16:40 5,8 C 64 % 1009,2 hPa 0,0 mm 6,4 km/h (2 Bft) W 270 10 min 0 UV-I 132 W/m 17,7 km/h (3 Bft)
01.03.2010 16:50 5,9 C 63 % 1009,2 hPa 0,0 mm 6,4 km/h (2 Bft) W 270 10 min 0 UV-I 230 W/m 17,7 km/h (3 Bft)
01.03.2010 17:00 5,9 C 62 % 1009,2 hPa 0,0 mm 6,4 km/h (2 Bft) W 270 0 min 0 UV-I 83 W/m 16,1 km/h (3 Bft)
01.03.2010 17:10 5,8 C 61 % 1009,3 hPa 0,0 mm 4,8 km/h (1 Bft) W 270 10 min 0 UV-I 128 W/m 19,3 km/h (3 Bft)
01.03.2010 17:20 5,7 C 62 % 1009,4 hPa 0,0 mm 4,8 km/h (1 Bft) W 270 10 min 0 UV-I 81 W/m 16,1 km/h (3 Bft)
01.03.2010 17:30 5,4 C 63 % 1009,6 hPa 0,0 mm 4,8 km/h (1 Bft) W 270 0 min 0 UV-I 25 W/m 14,5 km/h (3 Bft)
01.03.2010 17:40 5,3 C 64 % 1009,7 hPa 0,0 mm 3,2 km/h (1 Bft) W 270 0 min 0 UV-I 16 W/m 9,7 km/h (2 Bft)
01.03.2010 17:50 5,2 C 65 % 1009,9 hPa 0,0 mm 3,2 km/h (1 Bft) W 270 0 min 0 UV-I 9 W/m 11,3 km/h (2 Bft)
01.03.2010 18:00 5,2 C 66 % 1010,0 hPa 0,0 mm 1,6 km/h (1 Bft) W 270 0 min 0 UV-I 5 W/m 8,0 km/h (2 Bft)
01.03.2010 18:10 5,2 C 67 % 1010,1 hPa 0,0 mm 3,2 km/h (1 Bft) W 270 0 min 0 UV-I 0 W/m 9,7 km/h (2 Bft)
01.03.2010 18:20 5,2 C 67 % 1010,3 hPa 0,0 mm 3,2 km/h (1 Bft) NW 315 0 min 0 UV-I 0 W/m 14,5 km/h (3 Bft)
01.03.2010 18:30 5,1 C 68 % 1010,4 hPa 0,0 mm 3,2 km/h (1 Bft) W-NW 292 0 min 0 UV-I 0 W/m 9,7 km/h (2 Bft)
01.03.2010 18:40 5,1 C 69 % 1010,7 hPa 0,0 mm 1,6 km/h (1 Bft) W-NW 292 0 min 0 UV-I 0 W/m 9,7 km/h (2 Bft)
01.03.2010 18:50 5,0 C 69 % 1010,8 hPa 0,0 mm 1,6 km/h (1 Bft) W-NW 292 0 min 0 UV-I 0 W/m 8,0 km/h (2 Bft)
01.03.2010 19:00 4,9 C 70 % 1011,0 hPa 0,0 mm 3,2 km/h (1 Bft) W 270 0 min 0 UV-I 0 W/m 9,7 km/h (2 Bft)
01.03.2010 19:10 4,9 C 71 % 1011,1 hPa 0,0 mm 3,2 km/h (1 Bft) W 270 0 min 0 UV-I 0 W/m 9,7 km/h (2 Bft)
01.03.2010 19:20 4,9 C 71 % 1011,1 hPa 0,0 mm 4,8 km/h (1 Bft) NW 315 0 min 0 UV-I 0 W/m 11,3 km/h (2 Bft)
01.03.2010 19:30 4,8 C 72 % 1011,2 hPa 0,0 mm 6,4 km/h (2 Bft) W-NW 292 0 min 0 UV-I 0 W/m 22,5 km/h (4 Bft)
01.03.2010 19:40 4,7 C 73 % 1011,4 hPa 0,0 mm 3,2 km/h (1 Bft) W-NW 292 0 min 0 UV-I 0 W/m 11,3 km/h (2 Bft)
01.03.2010 19:50 4,6 C 74 % 1011,5 hPa 0,0 mm 3,2 km/h (1 Bft) W-NW 292 0 min 0 UV-I 0 W/m 9,7 km/h (2 Bft)
01.03.2010 20:00 4,5 C 75 % 1011,7 hPa 0,0 mm 1,6 km/h (1 Bft) W-NW 292 0 min 0 UV-I 0 W/m 6,4 km/h (2 Bft)
01.03.2010 20:10 4,4 C 75 % 1011,7 hPa 0,0 mm 6,4 km/h (2 Bft) W 270 0 min 0 UV-I 0 W/m 17,7 km/h (3 Bft)
01.03.2010 20:20 4,4 C 76 % 1011,8 hPa 0,0 mm 3,2 km/h (1 Bft) W 270 0 min 0 UV-I 0 W/m 11,3 km/h (2 Bft)
01.03.2010 20:30 4,4 C 76 % 1011,8 hPa 0,0 mm 4,8 km/h (1 Bft) W 270 0 min 0 UV-I 0 W/m 11,3 km/h (2 Bft)
01.03.2010 20:40 4,3 C 76 % 1012,0 hPa 0,0 mm 4,8 km/h (1 Bft) W 270 0 min 0 UV-I 0 W/m 11,3 km/h (2 Bft)
01.03.2010 20:50 4,3 C 76 % 1012,1 hPa 0,0 mm 3,2 km/h (1 Bft) W 270 0 min 0 UV-I 0 W/m 14,5 km/h (3 Bft)
01.03.2010 21:00 4,2 C 76 % 1012,2 hPa 0,0 mm 3,2 km/h (1 Bft) W 270 0 min 0 UV-I 0 W/m 11,3 km/h (2 Bft)
01.03.2010 21:10 4,2 C 77 % 1012,3 hPa 0,0 mm 4,8 km/h (1 Bft) W 270 0 min 0 UV-I 0 W/m 14,5 km/h (3 Bft)
01.03.2010 21:20 4,2 C 77 % 1012,5 hPa 0,0 mm 3,2 km/h (1 Bft) W 270 0 min 0 UV-I 0 W/m 9,7 km/h (2 Bft)
01.03.2010 21:30 4,2 C 77 % 1012,6 hPa 0,0 mm 3,2 km/h (1 Bft) W 270 0 min 0 UV-I 0 W/m 9,7 km/h (2 Bft)
01.03.2010 21:40 4,2 C 77 % 1012,8 hPa 0,0 mm 3,2 km/h (1 Bft) W-NW 292 0 min 0 UV-I 0 W/m 9,7 km/h (2 Bft)
01.03.2010 21:50 4,1 C 77 % 1012,9 hPa 0,0 mm 3,2 km/h (1 Bft) W 270 0 min 0 UV-I 0 W/m 16,1 km/h (3 Bft)
01.03.2010 22:00 4,1 C 77 % 1013,0 hPa 0,0 mm 3,2 km/h (1 Bft) W 270 0 min 0 UV-I 0 W/m 14,5 km/h (3 Bft)
01.03.2010 22:10 4,1 C 77 % 1013,1 hPa 0,0 mm 3,2 km/h (1 Bft) W 270 0 min 0 UV-I 0 W/m 9,7 km/h (2 Bft)
01.03.2010 22:20 4,0 C 77 % 1013,2 hPa 0,0 mm 1,6 km/h (1 Bft) NW 315 0 min 0 UV-I 0 W/m 9,7 km/h (2 Bft)
01.03.2010 22:30 3,8 C 77 % 1013,2 hPa 0,0 mm 3,2 km/h (1 Bft) W 270 0 min 0 UV-I 0 W/m 11,3 km/h (2 Bft)
01.03.2010 22:40 3,7 C 78 % 1013,2 hPa 0,0 mm 3,2 km/h (1 Bft) W 270 0 min 0 UV-I 0 W/m 8,0 km/h (2 Bft)
01.03.2010 22:50 3,6 C 78 % 1013,4 hPa 0,0 mm 3,2 km/h (1 Bft) W 270 0 min 0 UV-I 0 W/m 9,7 km/h (2 Bft)
01.03.2010 23:00 3,6 C 79 % 1013,5 hPa 0,0 mm 1,6 km/h (1 Bft) W 270 0 min 0 UV-I 0 W/m 6,4 km/h (2 Bft)
01.03.2010 23:10 3,5 C 79 % 1013,6 hPa 0,0 mm 1,6 km/h (1 Bft) W 270 0 min 0 UV-I 0 W/m 8,0 km/h (2 Bft)
01.03.2010 23:20 3,4 C 79 % 1013,6 hPa 0,0 mm 3,2 km/h (1 Bft) W 270 0 min 0 UV-I 0 W/m 11,3 km/h (2 Bft)
01.03.2010 23:30 3,4 C 80 % 1013,6 hPa 0,0 mm 1,6 km/h (1 Bft) W 270 0 min 0 UV-I 0 W/m 8,0 km/h (2 Bft)
01.03.2010 23:40 3,4 C 80 % 1013,7 hPa 0,0 mm 1,6 km/h (1 Bft) W 270 0 min 0 UV-I 0 W/m 11,3 km/h (2 Bft)
01.03.2010 23:50 3,3 C 80 % 1013,7 hPa 0,0 mm 1,6 km/h (1 Bft) W 270 0 min 0 UV-I 0 W/m 8,0 km/h (2 Bft)
_ Min-Zeit 07:30 15:30 00:00 - 18:00 - - - - - 20:00
Minimum _ 3,3 C 61 % 992,0 hPa - 1,6 km/h (1 Bft) - - - - - 6,4 km/h (2 Bft)
_ Max-Zeit 13:50 07:40 23:40 01:10 00:40 - - 11:00 13:20 13:40 00:40
Maximum _ 6,3 C 89 % 1013,7 hPa 0,3 mm 20,9 km/h
W-SW (4 Bft)
- - 10 min 2 UV-I 591 W/m 48,3 km/h
W-SW (6 Bft)
Durchschnitt _ 4,4 C 80 % 1004,6 hPa #2,8 mm 9,9 km/h (2 Bft) W - #2:40 h 1 UV-I 179 W/m 25,0 km/h (4 Bft)